ADDS METAR Data INFO
IDs: Format: Raw Decoded Include TAF

Data at: 2030 UTC 20 Jul 2018

KM30 202015Z AUTO 23007KT 7SM CLR 33/25 A2983 RMK AO2 T03270250
KM30 201955Z AUTO 23007KT 7SM CLR 33/25 A2983 RMK AO2 T03270251
KM30 201935Z AUTO 23006KT 7SM CLR 33/25 A2984 RMK AO2 T03250253
KM30 201915Z AUTO 23008KT 5SM HZ CLR 33/25 A2985 RMK AO2 LTG DSNT NE T03250252
KM30 201855Z AUTO 23006KT 5SM HZ CLR 32/25 A2986 RMK AO2 T03240248
KM30 201835Z AUTO 22008KT 3SM HZ CLR 32/25 A2986 RMK AO2 T03240250
KM30 201815Z AUTO 24008KT 4SM HZ CLR 32/25 A2987 RMK AO2 T03230246
KM30 201755Z AUTO 22008KT 5SM HZ CLR 32/25 A2987 RMK AO2 T03200251 10320 20240
KM30 201735Z AUTO 18005KT 7SM CLR 31/24 A2988 RMK AO2 T03140244
KM30 201715Z AUTO 18003KT 10SM CLR 31/24 A2988 RMK AO2 T03110242
KM30 201655Z AUTO 22005KT 7SM CLR 31/25 A2988 RMK AO2 T03110245
KM30 201635Z AUTO 23009KT 10SM CLR 30/24 A2989 RMK AO2 T03010243
KM30 201615Z AUTO 24009KT 10SM SCT019 30/25 A2989 RMK AO2 T03010245
KM30 201555Z AUTO 23006KT 10SM SCT019 SCT120 30/25 A2989 RMK AO2 T02960250
KM30 201535Z AUTO 23005KT 7SM SCT017 BKN110 28/25 A2989 RMK AO2 T02770245
KM30 201515Z AUTO 21005KT 5SM HZ SCT013 BKN110 27/25 A2989 RMK AO2 T02740246
KM30 201455Z AUTO 16004KT 7SM SCT013 BKN110 27/24 A2988 RMK AO2 T02660242
KM30 201435Z AUTO 00000KT 10SM -RA SCT050 SCT080 SCT090 26/24 A2989 RMK AO2 T02640240
KM30 201415Z AUTO 00000KT 7SM -RA BKN013 BKN050 OVC090 26/24 A2989 RMK AO2 T02610237
KM30 201355Z AUTO 23008KT 7SM VCTS OVC013 27/24 A2991 RMK AO2 LTG DSNT NW T02690239
KM30 201335Z AUTO 22008KT 10SM OVC011 26/24 A2989 RMK AO2 LTG DSNT NW T02610235
KM30 201315Z AUTO 22007KT 7SM OVC011 26/23 A2990 RMK AO2 T02570230
KM30 201255Z AUTO 23008KT 10SM OVC013 25/23 A2991 RMK AO2 T02520227
KM30 201235Z AUTO 21006KT 10SM BKN013 25/23 A2989 RMK AO2 T02480225
KM30 201215Z AUTO 19006KT 10SM CLR 24/22 A2989 RMK AO2 T02420222
KM30 201200Z AUTO 20005KT 10SM SCT041 24/22 A2990 RMK AO2 T02400221
KM30 201135Z AUTO 19005KT 10SM CLR 23/22 A2989 RMK AO2 T02340218
KM30 201115Z AUTO 17003KT 10SM CLR 23/22 A2988 RMK AO2 T02320216
KM30 201055Z AUTO 16003KT 10SM CLR 23/22 A2987 RMK AO2 T02340216
KM30 201035Z AUTO 20004KT 10SM CLR 23/22 A2987 RMK AO2 T02300215
KM30 201015Z AUTO 20003KT 10SM SCT032 23/22 A2988 RMK AO2 T02300215
KM30 200955Z AUTO 18003KT 10SM BKN032 24/22 A2987 RMK AO2 T02350216
KM30 200935Z AUTO 16003KT 10SM BKN030 BKN037 24/22 A2986 RMK AO2 T02370219
KM30 200915Z AUTO 00000KT 10SM SCT030 24/22 A2987 RMK AO2 T02350218
KM30 200855Z AUTO 16003KT 10SM CLR 24/22 A2986 RMK AO2 T02350220
KM30 200835Z AUTO 18004KT 10SM CLR 24/22 A2986 RMK AO2 T02390221
KM30 200815Z AUTO 18004KT 10SM CLR 24/22 A2987 RMK AO2 T02390221
KM30 200755Z AUTO 17003KT 10SM CLR 24/22 A2987 RMK AO2 T02410220
KM30 200735Z AUTO 00000KT 10SM CLR 24/22 A2987 RMK AO2 T02400220
KM30 200715Z AUTO 16003KT 10SM CLR 23/21 A2987 RMK AO2 T02290214
KM30 200655Z AUTO 00000KT 10SM CLR 23/21 A2987 RMK AO2 T02300211
KM30 200635Z AUTO 00000KT 10SM CLR 23/21 A2987 RMK AO2 T02340210
KM30 200620Z AUTO 00000KT 10SM CLR 24/21 A2987 RMK AO2 T02350212
KM30 200555Z AUTO 16003KT 10SM SCT036 24/21 A2988 RMK AO2 T02420210 10293 20240 403260181
KM30 200535Z AUTO 16003KT 10SM BKN038 BKN046 24/21 A2989 RMK AO2 T02420210
KM30 200515Z AUTO 15003KT 10SM BKN038 24/21 A2989 RMK AO2 T02420209
KM30 200455Z AUTO 17004KT 10SM CLR 24/21 A2990 RMK AO2 T02400208
KM30 200435Z AUTO 16004KT 10SM CLR 24/21 A2990 RMK AO2 T02420208
KM30 200415Z AUTO 00000KT 10SM CLR 25/21 A2990 RMK AO2 T02450208
KM30 200355Z AUTO 15004KT 10SM CLR 25/21 A2990 RMK AO2 T02460210
KM30 200335Z AUTO 18004KT 7SM CLR 25/21 A2990 RMK AO2 T02520212
KM30 200315Z AUTO 17004KT 7SM CLR 26/22 A2989 RMK AO2 T02560216
KM30 200255Z AUTO 18007KT 7SM CLR 26/22 A2988 RMK AO2 T02620220
KM30 200235Z AUTO 18004KT 10SM SCT040 SCT055 27/23 A2988 RMK AO2 T02680230
KM30 200215Z AUTO 17004KT 10SM SCT042 BKN055 26/24 A2988 RMK AO2 T02590236
KM30 200155Z AUTO 00000KT 10SM CLR 26/24 A2986 RMK AO2 LTG DSNT SE T02560238
KM30 200135Z AUTO 00000KT 10SM CLR 27/24 A2986 RMK AO2 LTG DSNT SE T02650240
KM30 200115Z AUTO 00000KT 10SM CLR 27/24 A2987 RMK AO2 LTG DSNT SE T02700241
KM30 200055Z AUTO 00000KT 10SM SCT044 SCT055 28/24 A2988 RMK AO2 LTG DSNT SE AND S T02770242
KM30 200035Z AUTO 23005KT 10SM SCT046 SCT055 BKN120 29/24 A2987 RMK AO2 LTG DSNT S T02860235
KM30 200015Z AUTO 00000KT 10SM SCT048 BKN120 29/23 A2986 RMK AO2 LTG DSNT S T02900234
KM30 192355Z AUTO 10003KT 10SM SCT050 29/24 A2986 RMK AO2 LTG DSNT S T02940236 10326 20294
KM30 192335Z AUTO 09003KT 10SM SCT050 30/24 A2986 RMK AO2 T02970242
KM30 192315Z AUTO 08003KT 10SM SCT050 SCT065 30/24 A2987 RMK AO2 T03010237
KM30 192255Z AUTO 00000KT 10SM SCT050 BKN065 30/24 A2988 RMK AO2 T02980240
KM30 192235Z AUTO 00000KT 10SM BKN065 31/22 A2988 RMK AO2 T03070224
KM30 192215Z AUTO 20003KT 10SM SCT050 BKN060 32/22 A2989 RMK AO2 T03230221
KM30 192155Z AUTO 00000KT 10SM BKN050 BKN060 OVC080 30/23 A2989 RMK AO2 T03040229
KM30 192135Z AUTO 16004KT 10SM BKN060 OVC080 31/21 A2988 RMK AO2 T03050213
KM30 192115Z AUTO 19005KT 7SM BKN050 OVC060 31/22 A2989 RMK AO2 T03130217
KM30 192055Z AUTO 13004KT 7SM BKN050 BKN065 32/22 A2988 RMK AO2 T03210220
KM30 192035Z AUTO 17004KT 10SM BKN050 BKN065 31/22 A2989 RMK AO2 T03120222
KM30 192015Z AUTO 19004KT 10SM BKN050 BKN065 32/21 A2990 RMK AO2 T03200213
KM30 191955Z AUTO 18005KT 7SM SCT055 BKN065 32/22 A2991 RMK AO2 T03220220
KM30 191935Z AUTO 19004KT 5SM HZ SCT048 SCT055 SCT080 32/22 A2992 RMK AO2 T03180219
KM30 191915Z AUTO 21004KT 5SM HZ SCT048 SCT080 BKN110 32/22 A2993 RMK AO2 LTG DSNT NW T03220222
KM30 191855Z AUTO 16004KT 5SM HZ CLR 32/22 A2993 RMK AO2 T03150216
KM30 191835Z AUTO 19004KT 4SM HZ CLR 31/22 A2993 RMK AO2 T03120216
KM30 191815Z AUTO 17005KT 4SM HZ CLR 31/21 A2994 RMK AO2 T03100211
KM30 191755Z AUTO 15004KT 5SM HZ CLR 31/21 A2994 RMK AO2 T03130207 10315 20197
KM30 191735Z AUTO 13004KT 5SM HZ CLR 31/21 A2995 RMK AO2 T03100210
KM30 191715Z AUTO 12005KT 5SM HZ CLR 31/21 A2995 RMK AO2 T03060209
KM30 191655Z AUTO 11003KT 10SM SCT120 31/21 A2996 RMK AO2 T03050209
KM30 191635Z AUTO 11004KT 10SM CLR 30/21 A2996 RMK AO2 T03010207
KM30 191615Z AUTO 11004KT 5SM HZ CLR 29/21 A2996 RMK AO2 T02940206
KM30 191555Z AUTO 11005KT 5SM HZ CLR 30/21 A2996 RMK AO2 T02980214
KM30 191535Z AUTO 11003KT 7SM CLR 28/21 A2996 RMK AO2 T02840208
KM30 191515Z AUTO 12004KT 3SM HZ CLR 28/21 A2996 RMK AO2 T02780210
KM30 191455Z AUTO 10004KT 3SM HZ CLR 27/20 A2997 RMK AO2 T02740200
KM30 191435Z AUTO 00000KT 4SM HZ CLR 27/20 A2997 RMK AO2 T02690203
KM30 191415Z AUTO 11005KT 2 1/2SM HZ CLR 26/20 A2998 RMK AO2 T02620200
KM30 191355Z AUTO 10003KT 4SM HZ CLR 25/20 A2998 RMK AO2 T02530199
KM30 191335Z AUTO 08003KT 4SM HZ CLR 25/20 A2998 RMK AO2 T02460196
KM30 191315Z AUTO 00000KT 4SM HZ CLR 24/19 A2998 RMK AO2 T02400193
KM30 191255Z AUTO 00000KT 3SM HZ CLR 23/19 A2999 RMK AO2 T02300187
KM30 191235Z AUTO 00000KT 4SM HZ CLR 22/19 A2999 RMK AO2 LTG DSNT S T02240186
KM30 191215Z AUTO 00000KT 4SM BR CLR 21/19 A2998 RMK AO2 T02110188
KM30 191155Z AUTO 00000KT 5SM BR CLR 20/19 A2998 RMK AO2 T01960186 10212 20181
KM30 191135Z AUTO 00000KT 4SM BR CLR 19/19 A2997 RMK AO2 T01900185
KM30 191115Z AUTO 00000KT 4SM BR CLR 19/18 A2997 RMK AO2 T01870181
KM30 191055Z AUTO 00000KT 4SM BR CLR 19/18 A2997 RMK AO2 T01860181
KM30 191035Z AUTO 00000KT 7SM CLR 18/18 A2997 RMK AO2 T01840179
KM30 191015Z AUTO 00000KT 7SM CLR 19/18 A2997 RMK AO2 T01870182
KM30 190955Z AUTO 00000KT 10SM CLR 18/18 A2997 RMK AO2 T01840178
KM30 190935Z AUTO 00000KT 10SM CLR 19/18 A2997 RMK AO2 T01880181
KM30 190915Z AUTO 00000KT 10SM SCT120 19/18 A2997 RMK AO2 T01880182
KM30 190855Z AUTO 00000KT 10SM CLR 19/18 A2997 RMK AO2 T01910184
KM30 190835Z AUTO 00000KT 10SM CLR 19/18 A2997 RMK AO2 T01920184